createdAt,value
2022-08-03T00:01:29.308Z,9.65
2022-08-03T00:03:56.191Z,9.38
2022-08-03T00:06:23.322Z,5.72
2022-08-03T00:08:50.434Z,7.78
2022-08-03T00:11:17.386Z,7.38
2022-08-03T00:13:44.552Z,7.85
2022-08-03T00:16:11.779Z,8.85
2022-08-03T00:18:38.596Z,8.35
2022-08-03T00:21:05.817Z,4.78
2022-08-03T00:23:51.139Z,7.65
2022-08-03T00:26:19.903Z,7.22
2022-08-03T00:28:47.210Z,6.75
2022-08-03T00:31:14.072Z,9.02
2022-08-03T00:33:58.258Z,5.10
2022-08-03T00:36:27.568Z,9.25
2022-08-03T00:38:54.942Z,10.05
2022-08-03T00:41:21.808Z,7.10
2022-08-03T00:43:48.590Z,9.13
2022-08-03T00:46:20.834Z,5.88
2022-08-03T00:48:51.970Z,10.75
2022-08-03T00:51:20.199Z,6.82
2022-08-03T00:53:47.196Z,11.60
2022-08-03T00:56:17.641Z,6.18
2022-08-03T00:58:45.905Z,5.88
2022-08-03T01:01:13.113Z,7.32
2022-08-03T01:03:40.375Z,8.55
2022-08-03T01:06:09.996Z,9.43
2022-08-03T01:09:01.815Z,7.18
2022-08-03T01:11:59.819Z,7.22
2022-08-03T01:14:36.012Z,6.55
2022-08-03T01:17:13.146Z,9.88
2022-08-03T01:19:39.877Z,11.90
2022-08-03T01:22:33.559Z,9.10
2022-08-03T01:25:14.498Z,9.13
2022-08-03T01:28:08.748Z,7.55
2022-08-03T01:30:39.739Z,9.45
2022-08-03T01:33:12.454Z,6.85
2022-08-03T01:35:42.288Z,7.20
2022-08-03T01:38:15.587Z,9.70
2022-08-03T01:40:44.407Z,7.80
2022-08-03T01:44:26.863Z,8.90
2022-08-03T01:46:04.115Z,8.38
2022-08-03T01:48:32.239Z,6.60
2022-08-03T01:51:00.466Z,10.38
2022-08-03T01:53:28.686Z,9.15
2022-08-03T01:55:57.354Z,8.27
2022-08-03T01:58:25.137Z,13.13
2022-08-03T02:00:53.268Z,7.90
2022-08-03T02:03:23.177Z,11.48
2022-08-03T02:11:05.752Z,7.80
2022-08-03T02:13:34.806Z,6.97
2022-08-03T02:16:03.722Z,10.68
2022-08-03T02:18:34.790Z,13.23
2022-08-03T02:21:10.774Z,9.07
2022-08-03T02:23:38.726Z,12.55
2022-08-03T02:26:09.335Z,8.90
2022-08-03T02:28:39.960Z,10.57
2022-08-03T02:31:13.765Z,9.38
2022-08-03T02:33:43.884Z,10.40
2022-08-03T02:36:13.265Z,11.35
2022-08-03T02:38:43.874Z,14.13
2022-08-03T02:41:17.799Z,11.98
2022-08-03T02:44:05.973Z,10.02
2022-08-03T02:46:38.619Z,11.65
2022-08-03T02:49:41.396Z,13.25
2022-08-03T02:51:55.284Z,9.15
2022-08-03T02:54:24.895Z,11.55
2022-08-03T02:56:53.995Z,12.10
2022-08-03T02:59:22.096Z,11.93
2022-08-03T03:01:49.616Z,9.70
2022-08-03T03:04:17.213Z,9.70
2022-08-03T03:06:48.990Z,9.13
2022-08-03T03:09:17.128Z,10.80
2022-08-03T03:11:44.707Z,9.63
2022-08-03T03:14:13.355Z,10.15
2022-08-03T03:16:41.796Z,13.13
2022-08-03T03:19:11.328Z,9.52
2022-08-03T03:21:38.440Z,13.85
2022-08-03T03:24:07.581Z,9.38
2022-08-03T03:26:38.313Z,11.13
2022-08-03T03:29:08.308Z,13.45
2022-08-03T03:31:36.171Z,8.20
2022-08-03T03:34:03.927Z,7.72
2022-08-03T03:36:30.683Z,11.00
2022-08-03T03:38:57.956Z,11.13
2022-08-03T03:41:25.315Z,12.73
2022-08-03T03:43:52.475Z,12.43
2022-08-03T03:46:19.673Z,14.65
2022-08-03T03:48:46.648Z,10.32
2022-08-03T03:51:13.927Z,11.55
2022-08-03T03:53:41.050Z,12.85
2022-08-03T03:56:07.782Z,13.45
2022-08-03T03:58:34.524Z,13.13
2022-08-03T04:01:01.869Z,9.57
2022-08-03T04:03:28.742Z,10.75
2022-08-03T04:06:14.461Z,13.15
2022-08-03T04:09:00.430Z,12.50
2022-08-03T04:11:43.544Z,13.27
2022-08-03T04:14:14.746Z,10.98
2022-08-03T04:16:45.182Z,11.38
2022-08-03T04:19:23.465Z,11.35
2022-08-03T04:21:57.077Z,14.82
2022-08-03T04:24:26.922Z,12.93
2022-08-03T04:26:55.074Z,11.35
2022-08-03T04:29:24.122Z,10.77
2022-08-03T04:31:54.105Z,10.85
2022-08-03T04:36:57.933Z,11.30
2022-08-03T04:39:27.292Z,12.38
2022-08-03T04:42:08.335Z,11.48
2022-08-03T04:44:41.026Z,12.07
2022-08-03T04:47:08.475Z,8.25
2022-08-03T04:49:37.853Z,9.00
2022-08-03T04:52:07.187Z,11.98
2022-08-03T04:54:48.681Z,12.98
2022-08-03T04:57:22.772Z,12.55
2022-08-03T04:59:59.589Z,12.00
2022-08-03T05:02:29.937Z,12.02
2022-08-03T05:04:57.056Z,9.52
2022-08-03T05:07:24.986Z,11.77
2022-08-03T05:10:01.405Z,10.93
2022-08-03T05:12:32.740Z,11.82
2022-08-03T05:17:27.236Z,15.85
2022-08-03T05:19:54.940Z,15.68
2022-08-03T05:22:22.576Z,13.68
2022-08-03T05:24:49.665Z,13.02
2022-08-03T05:27:22.047Z,13.85
2022-08-03T05:29:50.315Z,15.80
2022-08-03T05:32:18.256Z,14.40
2022-08-03T05:34:45.754Z,11.75
2022-08-03T05:37:12.879Z,13.20
2022-08-03T05:39:40.029Z,14.38
2022-08-03T05:42:06.765Z,14.38
2022-08-03T05:44:33.973Z,11.60
2022-08-03T05:47:01.084Z,14.68
2022-08-03T05:49:28.290Z,9.50
2022-08-03T05:51:59.954Z,12.05
2022-08-03T05:54:55.580Z,13.07
2022-08-03T05:57:22.303Z,12.23
2022-08-03T05:59:53.657Z,14.30
2022-08-03T06:02:25.475Z,14.95
2022-08-03T06:04:52.587Z,14.60
2022-08-03T06:07:19.331Z,13.82
2022-08-03T06:10:35.101Z,15.30
2022-08-03T06:12:35.988Z,13.32
2022-08-03T06:15:03.985Z,14.02
2022-08-03T06:17:37.284Z,10.48
2022-08-03T06:20:05.902Z,14.25
2022-08-03T06:22:33.233Z,16.38
2022-08-03T06:25:04.862Z,11.60
2022-08-03T06:27:37.052Z,6.78
2022-08-03T06:30:05.349Z,13.60
2022-08-03T06:32:32.381Z,14.00
2022-08-03T06:34:59.494Z,7.68
2022-08-03T06:37:28.117Z,12.52
2022-08-03T06:39:54.980Z,12.52
2022-08-03T06:42:22.617Z,14.13
2022-08-03T06:44:49.733Z,12.05
2022-08-03T06:47:16.469Z,11.43
2022-08-03T06:49:43.327Z,13.88
2022-08-03T06:52:10.480Z,10.30
2022-08-03T06:54:37.205Z,15.02
2022-08-03T06:57:04.351Z,12.80
2022-08-03T07:00:08.544Z,11.90
2022-08-03T07:02:21.075Z,12.68
2022-08-03T07:04:48.968Z,12.07
2022-08-03T07:07:15.707Z,13.80
2022-08-03T07:09:42.798Z,12.73
2022-08-03T07:14:51.100Z,14.98
2022-08-03T07:17:18.183Z,13.48
2022-08-03T07:19:44.885Z,14.98
2022-08-03T07:22:12.499Z,14.15
2022-08-03T07:24:39.411Z,15.50
2022-08-03T07:27:06.569Z,12.55
2022-08-03T07:29:34.858Z,11.43
2022-08-03T07:32:02.292Z,13.93
2022-08-03T07:34:29.159Z,14.07
2022-08-03T07:36:56.355Z,9.98
2022-08-03T07:39:23.519Z,15.20
2022-08-03T07:41:51.629Z,13.07
2022-08-03T07:44:21.677Z,12.02
2022-08-03T07:46:48.796Z,14.63
2022-08-03T07:49:15.967Z,15.55
2022-08-03T07:51:42.739Z,10.60
2022-08-03T07:54:10.219Z,14.07
2022-08-03T07:56:37.696Z,11.63
2022-08-03T07:59:04.421Z,11.80
2022-08-03T08:01:32.877Z,12.90
2022-08-03T08:04:00.109Z,16.08
2022-08-03T08:06:26.946Z,10.10
2022-08-03T08:08:55.080Z,13.73
2022-08-03T08:11:22.438Z,15.98
2022-08-03T08:13:49.575Z,17.00
2022-08-03T08:16:16.661Z,15.38
2022-08-03T08:18:43.747Z,12.43
2022-08-03T08:21:10.828Z,13.18
2022-08-03T08:23:42.287Z,11.32
2022-08-03T08:26:11.306Z,14.23
2022-08-03T08:28:38.028Z,10.35
2022-08-03T08:31:04.896Z,15.55
2022-08-03T08:33:54.279Z,12.18
2022-08-03T08:36:19.591Z,15.35
2022-08-03T08:38:46.369Z,11.25
2022-08-03T08:41:14.381Z,11.63
2022-08-03T08:43:42.275Z,14.02
2022-08-03T08:46:12.919Z,12.02
2022-08-03T08:48:51.405Z,12.27
2022-08-03T08:51:20.720Z,14.38
2022-08-03T08:53:52.063Z,15.85
2022-08-03T08:56:20.573Z,11.95
2022-08-03T08:58:58.239Z,10.88
2022-08-03T09:01:25.518Z,13.57
2022-08-03T09:03:54.116Z,12.70
2022-08-03T09:06:21.874Z,14.10
2022-08-03T09:08:48.830Z,15.10
2022-08-03T09:11:15.952Z,11.52
2022-08-03T09:13:42.974Z,16.85
2022-08-03T09:16:12.866Z,12.32
2022-08-03T09:18:41.169Z,15.50
2022-08-03T09:21:30.613Z,12.48
2022-08-03T09:24:02.749Z,14.75
2022-08-03T09:26:32.242Z,11.13
2022-08-03T09:29:11.274Z,14.80
2022-08-03T09:31:46.636Z,14.52
2022-08-03T09:34:15.966Z,14.57
2022-08-03T09:36:49.758Z,15.80
2022-08-03T09:39:40.433Z,14.02
2022-08-03T09:42:23.547Z,12.43
2022-08-03T09:44:52.276Z,15.75
2022-08-03T09:47:44.910Z,15.77
2022-08-03T09:50:12.833Z,15.13
2022-08-03T09:52:49.587Z,17.17
2022-08-03T09:55:23.522Z,12.77
2022-08-03T09:58:09.521Z,12.40
2022-08-03T10:01:01.053Z,13.23
2022-08-03T10:03:33.512Z,12.50
2022-08-03T10:06:28.739Z,14.30
2022-08-03T10:09:14.571Z,15.23
2022-08-03T10:11:42.971Z,14.27
2022-08-03T10:14:18.847Z,14.75
2022-08-03T10:16:47.242Z,13.90
2022-08-03T10:19:15.195Z,15.65
2022-08-03T10:21:55.616Z,13.65
2022-08-03T10:24:27.190Z,15.85
2022-08-03T10:27:05.745Z,16.80
2022-08-03T10:29:38.805Z,14.68
2022-08-03T10:32:14.584Z,14.25
2022-08-03T10:34:44.678Z,12.60
2022-08-03T10:37:13.315Z,10.00
2022-08-03T10:39:53.374Z,12.82
2022-08-03T10:42:26.307Z,15.20
2022-08-03T10:45:03.186Z,10.15
2022-08-03T10:47:31.845Z,10.07
2022-08-03T10:49:59.557Z,9.90
2022-08-03T10:52:31.877Z,11.57
2022-08-03T10:55:19.362Z,13.65
2022-08-03T10:57:56.223Z,12.05
2022-08-03T11:00:27.955Z,11.57
2022-08-03T11:05:33.338Z,11.50
2022-08-03T11:08:28.703Z,11.15
2022-08-03T11:10:58.204Z,11.50
2022-08-03T11:13:28.239Z,14.77
2022-08-03T11:16:00.123Z,10.07
2022-08-03T11:18:30.477Z,12.23
2022-08-03T11:21:00.165Z,14.32
2022-08-03T11:24:05.493Z,7.60
2022-08-03T11:26:34.328Z,12.63
2022-08-03T11:29:27.496Z,8.25
2022-08-03T11:31:54.247Z,10.48
2022-08-03T11:34:21.049Z,10.10
2022-08-03T11:37:20.879Z,11.43
2022-08-03T11:39:49.860Z,11.02
2022-08-03T11:42:22.445Z,10.65
2022-08-03T11:44:57.516Z,10.15
2022-08-03T11:50:02.417Z,8.40
2022-08-03T11:52:38.267Z,10.25
2022-08-03T11:55:10.673Z,10.95
2022-08-03T11:59:12.893Z,9.68
2022-08-03T12:00:31.338Z,13.75
2022-08-03T12:02:58.153Z,9.73
2022-08-03T12:05:54.835Z,10.18
2022-08-03T12:08:27.400Z,10.48
2022-08-03T12:10:56.204Z,10.68
2022-08-03T12:16:11.205Z,9.20
2022-08-03T12:18:38.045Z,10.00
2022-08-03T12:21:10.347Z,11.30
2022-08-03T12:23:38.197Z,9.02
2022-08-03T12:26:13.985Z,7.95
2022-08-03T12:28:49.934Z,11.52
2022-08-03T12:31:17.139Z,8.70
2022-08-03T12:34:03.318Z,11.88
2022-08-03T12:36:32.284Z,11.20
2022-08-03T12:39:07.501Z,9.45
2022-08-03T12:41:36.744Z,11.23
2022-08-03T12:44:05.318Z,11.63
2022-08-03T12:46:37.446Z,7.55
2022-08-03T12:49:15.052Z,7.10
2022-08-03T12:51:45.057Z,8.80
2022-08-03T12:54:24.193Z,11.68
2022-08-03T12:57:03.262Z,7.65
2022-08-03T12:59:35.076Z,10.43
2022-08-03T13:02:04.514Z,9.57
2022-08-03T13:04:37.023Z,8.10
2022-08-03T13:07:14.091Z,9.90
2022-08-03T13:09:54.607Z,9.18
2022-08-03T13:12:27.065Z,9.65
2022-08-03T13:14:57.060Z,9.35
2022-08-03T13:17:24.280Z,11.45
2022-08-03T13:19:51.841Z,10.40
2022-08-03T13:22:20.673Z,10.65
2022-08-03T13:24:48.985Z,10.38
2022-08-03T13:28:01.054Z,6.68
2022-08-03T13:30:04.569Z,11.40
2022-08-03T13:32:33.477Z,8.88
2022-08-03T13:35:02.577Z,9.80
2022-08-03T13:37:32.339Z,8.82
2022-08-03T13:40:03.131Z,9.57
2022-08-03T13:42:33.932Z,9.45
2022-08-03T13:45:01.635Z,7.97
2022-08-03T13:47:28.993Z,8.52
2022-08-03T13:50:01.424Z,8.80
2022-08-03T13:52:34.659Z,10.05
2022-08-03T13:55:05.895Z,9.05
2022-08-03T13:58:03.346Z,8.73
2022-08-03T14:00:27.614Z,4.50
2022-08-03T14:03:03.799Z,6.55
2022-08-03T14:05:32.733Z,6.53
2022-08-03T14:08:04.297Z,5.93
2022-08-03T14:10:39.893Z,7.43
2022-08-03T14:13:06.995Z,5.78
2022-08-03T14:15:37.454Z,7.07
2022-08-03T14:18:12.883Z,6.13
2022-08-03T14:20:50.316Z,9.23
2022-08-03T14:23:21.806Z,7.25
2022-08-03T14:25:51.705Z,6.50
2022-08-03T14:28:22.908Z,6.05
2022-08-03T14:30:53.979Z,8.02
2022-08-03T14:33:20.931Z,9.02
2022-08-03T14:35:47.860Z,7.25
2022-08-03T14:38:14.971Z,7.93
2022-08-03T14:40:41.774Z,6.85
2022-08-03T14:43:08.913Z,9.18
2022-08-03T14:45:35.629Z,8.77
2022-08-03T14:49:02.598Z,6.97
2022-08-03T14:50:52.518Z,8.25
2022-08-03T14:53:19.943Z,6.80
2022-08-03T14:55:49.566Z,6.55
2022-08-03T14:58:19.715Z,7.18
2022-08-03T15:00:49.731Z,5.22
2022-08-03T15:03:17.533Z,3.95
2022-08-03T15:05:44.898Z,7.53
2022-08-03T15:08:14.502Z,6.07
2022-08-03T15:10:44.748Z,6.50
2022-08-03T15:13:16.830Z,5.82
2022-08-03T15:15:43.880Z,7.88
2022-08-03T15:18:11.092Z,7.82
2022-08-03T15:20:46.566Z,7.55
2022-08-03T15:23:15.378Z,6.80
2022-08-03T15:26:29.291Z,5.75
2022-08-03T15:28:30.823Z,5.22
2022-08-03T15:30:57.982Z,6.72
2022-08-03T15:33:24.888Z,6.03
2022-08-03T15:35:52.863Z,7.00
2022-08-03T15:38:20.013Z,5.50
2022-08-03T15:40:46.709Z,5.93
2022-08-03T15:43:13.855Z,10.10
2022-08-03T15:45:42.049Z,10.95
2022-08-03T15:48:09.320Z,6.60
2022-08-03T15:50:36.457Z,5.20
2022-08-03T15:53:04.405Z,10.73
2022-08-03T15:55:34.417Z,5.65
2022-08-03T15:59:03.926Z,5.57
2022-08-03T16:00:47.968Z,5.97
2022-08-03T16:03:14.674Z,8.60
2022-08-03T16:05:41.571Z,5.72
2022-08-03T16:08:13.507Z,4.55
2022-08-03T16:10:41.126Z,5.05
2022-08-03T16:13:08.493Z,6.80
2022-08-03T16:15:38.393Z,5.15
2022-08-03T16:18:06.758Z,6.03
2022-08-03T16:20:35.051Z,5.35
2022-08-03T16:23:11.048Z,9.88
2022-08-03T16:25:40.724Z,7.13
2022-08-03T16:28:13.609Z,5.65
2022-08-03T16:30:42.903Z,5.70
2022-08-03T16:33:10.673Z,5.07
2022-08-03T16:35:37.509Z,5.20
2022-08-03T16:38:09.627Z,6.15
2022-08-03T16:40:37.305Z,6.43
2022-08-03T16:43:18.456Z,5.30
2022-08-03T16:45:46.386Z,6.72
2022-08-03T16:48:13.264Z,7.68
2022-08-03T16:50:39.941Z,8.20
2022-08-03T16:53:09.021Z,6.00
2022-08-03T16:55:48.664Z,5.75
2022-08-03T16:58:34.894Z,6.70
2022-08-03T17:01:21.167Z,6.20
2022-08-03T17:04:01.952Z,6.32
2022-08-03T17:06:36.976Z,8.50
2022-08-03T17:09:09.816Z,8.88
2022-08-03T17:11:43.861Z,5.95
2022-08-03T17:14:21.560Z,7.85
2022-08-03T17:16:52.517Z,5.55
2022-08-03T17:19:23.319Z,4.63
2022-08-03T17:21:59.688Z,5.78
2022-08-03T17:24:41.391Z,8.40
2022-08-03T17:27:18.592Z,3.50
2022-08-03T17:30:10.208Z,6.82
2022-08-03T17:32:42.313Z,6.50
2022-08-03T17:35:10.381Z,6.70
2022-08-03T17:37:58.429Z,7.05
2022-08-03T17:40:24.762Z,7.15
2022-08-03T17:42:52.386Z,5.50
2022-08-03T17:45:20.340Z,7.07
2022-08-03T17:47:57.624Z,8.57
2022-08-03T17:50:34.342Z,7.72
2022-08-03T17:53:06.778Z,5.88
2022-08-03T17:56:40.748Z,6.18
2022-08-03T17:59:08.312Z,6.03
2022-08-03T18:02:34.908Z,4.93
2022-08-03T18:05:16.520Z,6.10
2022-08-03T18:10:34.892Z,5.43
2022-08-03T18:13:10.516Z,5.43
2022-08-03T18:15:46.104Z,5.38
2022-08-03T18:18:17.089Z,4.55
2022-08-03T18:21:04.532Z,8.07
2022-08-03T18:23:37.289Z,4.47
2022-08-03T18:26:11.967Z,8.90
2022-08-03T18:28:39.701Z,5.93
2022-08-03T18:31:11.831Z,5.97
2022-08-03T18:34:17.504Z,6.57
2022-08-03T18:36:30.036Z,5.90
2022-08-03T18:38:59.370Z,8.60
2022-08-03T18:41:32.994Z,4.97
2022-08-03T18:47:25.465Z,7.43
2022-08-03T18:50:07.437Z,7.85
2022-08-03T18:53:03.863Z,3.85
2022-08-03T18:56:18.427Z,6.13
2022-08-03T18:59:04.255Z,5.70
2022-08-03T19:02:00.022Z,7.20
2022-08-03T19:04:47.885Z,4.68
2022-08-03T19:07:24.322Z,5.45
2022-08-03T19:09:59.787Z,4.80
2022-08-03T19:12:43.223Z,7.25
2022-08-03T19:15:13.538Z,6.32
2022-08-03T19:17:52.881Z,8.00
2022-08-03T19:20:26.255Z,5.00
2022-08-03T19:22:55.433Z,6.22
2022-08-03T19:25:34.550Z,4.72
2022-08-03T19:28:04.251Z,8.32
2022-08-03T19:30:40.020Z,6.47
2022-08-03T19:33:11.906Z,6.18
2022-08-03T19:35:46.626Z,7.28
2022-08-03T19:38:28.516Z,7.05
2022-08-03T19:41:02.318Z,5.15
2022-08-03T19:43:49.353Z,8.15
2022-08-03T19:46:22.196Z,6.88
2022-08-03T19:49:03.629Z,5.38
2022-08-03T19:52:00.549Z,6.93
2022-08-03T19:54:29.552Z,7.05
2022-08-03T19:57:08.313Z,8.98
2022-08-03T19:59:49.575Z,7.22
2022-08-03T20:02:26.359Z,6.93
2022-08-03T20:04:59.792Z,5.68
2022-08-03T20:07:32.740Z,6.38
2022-08-03T20:10:02.019Z,5.95
2022-08-03T20:12:32.143Z,8.90
2022-08-03T20:15:03.938Z,5.78
2022-08-03T20:20:24.039Z,7.82
2022-08-03T20:22:57.651Z,6.55
2022-08-03T20:25:37.959Z,6.18
2022-08-03T20:28:13.947Z,7.22
2022-08-03T20:30:43.352Z,6.63
2022-08-03T20:33:10.652Z,7.25
2022-08-03T20:35:37.895Z,5.10
2022-08-03T20:38:09.271Z,4.88
2022-08-03T20:40:38.165Z,5.90
2022-08-03T20:43:09.234Z,6.63
2022-08-03T20:46:01.176Z,7.50
2022-08-03T20:48:23.883Z,6.25
2022-08-03T20:50:51.080Z,10.60
2022-08-03T20:53:57.092Z,5.15
2022-08-03T20:56:05.116Z,7.82
2022-08-03T20:58:36.319Z,8.77
2022-08-03T21:01:03.190Z,5.47
2022-08-03T21:03:40.660Z,7.72
2022-08-03T21:06:27.417Z,6.47
2022-08-03T21:09:04.113Z,6.38
2022-08-03T21:11:43.144Z,5.95
2022-08-03T21:13:03.991Z,7.50
2022-08-03T21:13:09.560Z,6.93
2022-08-03T21:14:41.107Z,7.88
2022-08-03T21:17:14.331Z,6.57
2022-08-03T21:19:53.416Z,9.45
2022-08-03T21:22:23.151Z,8.18
2022-08-03T21:24:55.897Z,6.32
2022-08-03T21:27:24.349Z,9.35
2022-08-03T21:29:53.220Z,5.90
2022-08-03T21:35:00.413Z,7.70
2022-08-03T21:37:28.720Z,8.50
2022-08-03T21:39:56.305Z,7.85
2022-08-03T21:42:23.928Z,7.88
2022-08-03T21:44:53.923Z,6.97
2022-08-03T21:47:23.623Z,8.38
2022-08-03T21:50:08.719Z,7.00
2022-08-03T21:52:43.392Z,6.68
2022-08-03T21:55:18.625Z,6.93
2022-08-03T21:57:52.866Z,7.75
2022-08-03T22:00:22.976Z,8.50
2022-08-03T22:02:56.072Z,7.88
2022-08-03T22:05:42.654Z,7.00
2022-08-03T22:08:13.244Z,9.23
2022-08-03T22:10:40.433Z,9.40
2022-08-03T22:13:07.222Z,6.80
2022-08-03T22:15:34.525Z,8.98
2022-08-03T22:18:03.591Z,8.45
2022-08-03T22:20:31.071Z,7.18
2022-08-03T22:23:01.571Z,10.05
2022-08-03T22:25:31.381Z,6.68
2022-08-03T22:28:01.956Z,9.73
2022-08-03T22:30:29.353Z,8.05
2022-08-03T22:32:57.373Z,8.32
2022-08-03T22:35:25.711Z,8.90
2022-08-03T22:37:54.560Z,11.32
2022-08-03T22:40:21.774Z,8.45
2022-08-03T22:42:52.431Z,6.90
2022-08-03T22:46:07.156Z,7.35
2022-08-03T22:48:08.195Z,9.88
2022-08-03T22:50:35.458Z,7.82
2022-08-03T22:53:02.953Z,9.93
2022-08-03T22:55:29.786Z,9.43
2022-08-03T22:57:56.651Z,7.22
2022-08-03T23:00:24.074Z,7.32
2022-08-03T23:02:53.546Z,7.78
2022-08-03T23:06:02.460Z,8.25
2022-08-03T23:08:14.789Z,8.52
2022-08-03T23:10:47.057Z,9.40
2022-08-03T23:13:16.913Z,10.20
2022-08-03T23:15:50.690Z,9.98
2022-08-03T23:18:20.728Z,8.85
2022-08-03T23:20:51.782Z,9.55
2022-08-03T23:23:19.951Z,6.80
2022-08-03T23:25:49.651Z,10.05
2022-08-03T23:28:17.080Z,13.95
2022-08-03T23:30:44.622Z,8.52
2022-08-03T23:33:15.913Z,9.18
2022-08-03T23:36:30.753Z,7.60
2022-08-03T23:38:56.902Z,8.07
2022-08-03T23:41:23.684Z,8.00
2022-08-03T23:43:54.224Z,7.70
2022-08-03T23:46:25.759Z,9.43
2022-08-03T23:48:53.816Z,9.90
2022-08-03T23:51:44.657Z,10.00
2022-08-03T23:54:52.355Z,9.00
2022-08-03T23:57:37.301Z,8.98
